Timeline UpdatesTrip UpdatesNews PostsPvt PostsTravel TipsAdmin PostsConv PostsFollowed PostsChat RequestsBlog PostsPNR Posts

Disclaimer
Search
 
 
Fri Apr 25, 2014 04:08:45 ISTHomeTrainsΣChainsAtlasPNRForumGalleryNewsFAQTripsMembersLoginFeedback
No Recent News for this Train
Other Trains in the News **new
Latest...
It has been decided to extend the service of 75719/75720 Malda Town – Coochbehar DEMU upto Dinhata w.e.f. 2nd August 2013 for the benefit of travelling public of Dinhata sub-division of North Bengal. 75720 Dinhata - Coochbehar - Malda Town DEMU will leave Dinhata at 06.26 hrs to arrive at Coochbehar at 07.01 hrs and continue its run to Malda Town.
Thu Aug 01, 2013 (11:38AM)
⇐ Return Journey: Train# 75719

75402⇒75720/Dinhata - MaldaTown DEMU

Sep 25 2013 (11:33PM)
Change Departure Station:
Change Arrival Station:
Post a Train Travel TipPost a Train Travel Tip **new
Post a Comment/Question/Picture/VideoPost a Comment/Question/Picture/Video
Pantry/Catering
✕ NO Pantry Car
✕ NO Catering
RSA - Rake Sharing
Rake/Coach Composition
Loco
News    PNR    Forum    Time-Table    Availability    Fare Chart    Map    Arr/Dep History    Trips    Gallery    ΣChains    X/O    Timeline    
Travel Time: 3h 19m    18 halts    Distance: 142 km    Avg Speed: 42 km/hr
Type: DEMU
Zone: NFR/Northeast Frontier
Departs @ 10:04 (Avg 46m late)
Platform# ???
SMTWTFS
Raninagar Jalpaiguri Junction/RQJ 
Arrives @ 13:23 (Avg 2h 2m late)
Platform# ???
SMTWTFS
Dalkhola/DLK 

18 halts. 19 intermediate Stations between Raninagar Jalpaiguri Junction and Dalkhola

Show ALL intermediate Stations  Show Old Time-Table

#CodeStation NameX/OArrivesAvgDepartsAvgHaltPFDay#KmSpeedElevZoneAddress
1DHHDinhata (2)  -06:26-11-126.63639mNFRDist - Coochbehar, West Bengal
2DCHDinhatta College Halt (1)  06:30-06:31-1m11-124.23638mNFRDinhata, West Bengal
3VTGBhetaguri (1)  06:42-06:43-1m11-117.54443mNFRBhetaguri, West Bengal
4DWTDewan Hat (1)  06:48-06:49-1m11-113.95141mNFRdist - Coachbehar, West Bengal
5COBCooch Behar (1)  07:01-07:05+174m11-103.75546mNFRCooch Behar, West Bengal
6NCBNew Cooch Behar Junction (5)X  07:10+1107:15+115m--1-99.16147mNFRPIN-736101. ., West Bengal
7PQZPundibari (2)X  07:25+1207:26+131m11-89.02753mNFRDist - Coochbehar, West Bengal
8SJRRSajherpar  07:36+1107:37+111m--1-84.56554mNFRPundibari, West Bengal
9GDXGhoksadanga  07:44+1207:46+122m--1-77.05258mNFRSiliguri Rd, West Bengal
10GUZGumanihat (2)  07:52+1307:53+131m11-71.87860mNFRKusaribari, West Bengal
11FLKFalakata (3)X  08:01+1408:02+151m--1-61.33067mNFRDist - Jalpaiguri, West Bengal
12SXXSalbari (2)X  08:20+1208:21+141m--1-52.42869mNFRDist - jalpaiguri, West Bengal
13KLGRKolai Gram  08:35+1108:36+131m--1-45.76875mNFRFalakata Rd, West Bengal
14DQGDhupguri (2)  08:42+1408:43+141m--1-39.05875mNFRDist - Jalpaiguri, West Bengal
15ATMAltagram (2)X  08:50+1408:51+141m--1-32.24385mNFRDist - Jalpaiguri, West Bengal
16BYXABetgara (2)X  09:03+1309:04+131m11-23.54289mNFRDIST - Jalpaiguri, West Bengal
17NMXNew Maynaguri (2)  09:11+1209:12+131m--1-18.75786mNFRDist - Jalpaiguri, West Bengal
18NQHNew Domohani (2)X  09:16+1309:17+141m11-14.82784mNFRDist - JALPAIGURI, West Bengal
19JPEJalpaiguri Road (2)X  09:34+2909:35+301m11-7.21589mNFRdist - Jalpaiguri 735102, West Bengal
20RQJ»Raninagar Jalpaiguri Junction (3)»X  10:03+3810:04+461m--10.05891mNFRDIST - Jalpaiguri, West Bengal
21BLKBelakoba (1)  10:12+4810:13+551m117.76399mNFRDist - jalpaiguri, West Bengal
22ABFCAmbari Falakata (2)X  10:22+5710:23+1:021m--117.131105mNFRdist - jalpaiguri 735201, West Bengal
23NJPNew Jalpaiguri Junction (8)X  10:40+5410:50+1:0410m--125.841114mNFRCity-Siliguri . Dist-Jalpaiguri, West Bengal
24RNIRangapani (2)  11:01+1:2011:02+1:211m--133.259114mNFRSILIGURI Dist - Darjeeling, West Bengal
25NJBNijbari  11:09+1:2211:10+1:221m--140.161104mNFRFulbari Ghoshpukur Bypass, West Bengal
26CATChattar Hat (2)X  11:17+1:2311:18+1:301m--147.25491mNFRChattar, West Bengal
27DMZDumdangiXO  11:28+1:3111:29+1:331m--156.32286mNFRHaftia Rd, West Bengal
28TMHTin Mile HatX  11:53+1:1911:54+1:201m--165.26174mNFRTin Mile, West Bengal
29MXJMangurjan  12:00+1:2312:01+1:271m--171.36469mNFRMangurjan, West Bengal
30DBQDhulabari  12:07+1:2712:08+1:271m--177.75868mNFRKishanganj, Bihar
31AUBAluabari Road (2)X  12:13+1:2612:15+1:272m--182.6680mNFRDist - uttar Dinajpur, West Bengal
32GEORGunjariaX  12:22+1:3012:23+1:301m--190.55764mNFRNational Highway 31, West Bengal
33GILGaisal (3)X  12:29+1:3112:30+1:361m--196.26662mNFRNational Highway 31, West Bengal
34PJPPanjipara (3)  12:38+1:3712:39+1:441m--1104.96155mNFRNational Highway 31, West Bengal
35KNEKishanGanj (3)  12:47+1:4112:49+1:432m--1113.14652mNFRKishanganj, Bihar
36HWRHatwar (2)X  13:00+1:4713:01+1:511m--1121.65446mNFRNational Highway 31, West Bengal
37KKAKanki (3)X  13:07+1:5313:08+1:551m--1127.06547mNFRKanki, West Bengal
38SJKLSurja Kamal (2)  13:15+1:5713:16+2:001m--1134.66144mNFRNational Highway 31, West Bengal
39DLK•Dalkhola (3)•  13:23+2:0213:25+2:052m--1141.76144mNFRDalkola, West Bengal
40TETATelta (2)  13:33+2:0713:34+2:081m--1149.83440mNFRRupauli, Bihar
41AHLAjharail  13:39+2:0713:40+2:071m--1152.65337mNFRNational Highway 34, West Bengal
42SUDSudhani (2)X  13:47+2:0713:48+2:111m--1158.8938mNFRState Highway 65, Bihar
43SJGMSanjay Gram  14:11+1:5714:12+1:571m--1162.27334mNFRSanjay Gram, West Bengal
44BOEBarsoi Junction (3)  14:19+1:5514:21+1:562m--1170.75137mNFRdist- katihar, Bihar
45MFAMukuria Junction (2)  14:26+2:0114:27+2:031m--1175.04832mNFRMukuria, Bihar
46BWPBBhawanipur BiharX  14:32+2:0514:33+2:051m--1179.05236mNFRBhawanipur, Bihar
47AZRAzamnagar Road (2)O  14:38+2:0514:39+2:061m--1183.41634mNFRAzamnagar, Bihar
48KMPHKamalpur HaltX  14:57+1:5614:58+1:561m--1188.25732mNFRKamalpur, Bihar
49KWEKhurial (2)  15:01+1:5515:02+1:571m--1191.07233mNFRKhurial, Bihar
50BAHNBabhabgaon HaltO  15:06+1:5415:07+1:541m--1195.8931mNFRBabhabgaon, West Bengal
51KDPRKumedpur Junction (4)  15:20+1:5215:22+1:572m--1197.77632mNFRDist. - Malda, West Bengal
52HCRHarischandrapur  15:28+1:5815:29+2:011m--1205.34731mNFRHarischandrapur, West Bengal
53MQGMilangarhX  15:35+2:0515:36+2:051m--1210.03529mNFRMilangarh, West Bengal
54BKRDBhaluka Road FX  15:42+2:0515:43+2:071m--1213.57530mNFRBhaluka, West Bengal
55MFZMalaharX  15:48+2:0915:49+2:091m--1219.86031mNFRNational Highway 81, West Bengal
56SMSamsi (2)  15:55+2:0915:57+2:102m--1225.84932mNFRdist - Malda, West Bengal
57SRPUSripur Halt (2)  16:02+2:1216:03+2:121m--1229.87227mNFRSripur, West Bengal
58KMRJKumarganj  16:07+2:1216:08+2:141m--1234.65728mNFRNational Highway 34, West Bengal
59MBCMahananda BridgeX  16:12+2:1616:13+2:161m--1238.44128mNFRMahananda, West Bengal
60EKIEklakhi Junction (3)  16:17+2:1616:18+2:221m--1241.22333mNFRDistt. - Malda, West Bengal
61ADFAdinaX  16:35+2:1416:36+2:201m--1247.72533mNFRNational Highway 34, West Bengal
62OMLFOld Malda Junction (3)  16:53+2:1216:54+2:211m--1254.91131mNFRDist - Malda, West Bengal
63MLDTMalda Town (5)  17:25+2:04---1260.6-30mERDist - Malda, West Bengal
Scroll to Top
Scroll to Bottom